QAL4313 YSSY-YMML
Flight info
| Callsign | QAL4313 |
|---|---|
| Flight time | N/A |
| Altitude | 40000 |
| Route | WOL H65 LEECE Q29 ML |
| Aircraft | B789/H-SDE1E2E3FGHIJ2J3J4J5M1RWXY/LB1D1 |
Departure
| Time | 2026-04-20 00:54 |
|---|---|
| Airport | Sydney Kingsford Smith International Airport (YSSY) |
Arrival
| Time | N/A |
|---|---|
| Airport | Melbourne Airport (YMML) |
| Time | Latitude | Longitude | Altitude | Speed | Heading |
|---|---|---|---|---|---|
| 2026-04-20 00:20 | -33.93722 | 151.17875 | 36 ft | 0 kts | 74° |
| 2026-04-20 00:41 | -33.93723 | 151.17873 | 36 ft | 1 kts | 75° |
| 2026-04-20 00:41 | -33.93726 | 151.17853 | 33 ft | 4 kts | 92° |
| 2026-04-20 00:41 | -33.93723 | 151.17831 | 28 ft | 5 kts | 126° |
| 2026-04-20 00:41 | -33.93709 | 151.17816 | 33 ft | 4 kts | 159° |
| 2026-04-20 00:42 | -33.93690 | 151.17810 | 34 ft | 3 kts | 175° |
| 2026-04-20 00:42 | -33.93670 | 151.17809 | 33 ft | 3 kts | 185° |
| 2026-04-20 00:42 | -33.93656 | 151.17811 | 34 ft | 1 kts | 189° |
| 2026-04-20 00:46 | -33.93672 | 151.17808 | 35 ft | 8 kts | 189° |
| 2026-04-20 00:47 | -33.93753 | 151.17791 | 28 ft | 6 kts | 191° |
| 2026-04-20 00:47 | -33.93814 | 151.17783 | 28 ft | 7 kts | 192° |
| 2026-04-20 00:47 | -33.93853 | 151.17722 | 27 ft | 13 kts | 253° |
| 2026-04-20 00:47 | -33.93859 | 151.17613 | 26 ft | 11 kts | 318° |
| 2026-04-20 00:48 | -33.93752 | 151.17574 | 28 ft | 22 kts | 348° |
| 2026-04-20 00:48 | -33.93651 | 151.17551 | 27 ft | 0 kts | 348° |
| 2026-04-20 00:48 | -33.93608 | 151.17537 | 28 ft | 8 kts | 346° |
| 2026-04-20 00:48 | -33.93605 | 151.17537 | 28 ft | 0 kts | 346° |
| 2026-04-20 00:49 | -33.93599 | 151.17535 | 27 ft | 4 kts | 346° |
| 2026-04-20 00:49 | -33.93538 | 151.17517 | 27 ft | 14 kts | 346° |
| 2026-04-20 00:49 | -33.93417 | 151.17506 | 27 ft | 22 kts | 1° |
| 2026-04-20 00:49 | -33.93294 | 151.17482 | 27 ft | 21 kts | 347° |
| 2026-04-20 00:50 | -33.93243 | 151.17468 | 26 ft | 9 kts | 348° |
| 2026-04-20 00:50 | -33.93150 | 151.17445 | 27 ft | 19 kts | 348° |
| 2026-04-20 00:50 | -33.93050 | 151.17420 | 27 ft | 0 kts | 347° |
| 2026-04-20 00:51 | -33.93041 | 151.17417 | 26 ft | 5 kts | 346° |
| 2026-04-20 00:52 | -33.92984 | 151.17382 | 24 ft | 12 kts | 307° |
| 2026-04-20 00:52 | -33.92958 | 151.17269 | 26 ft | 17 kts | 271° |
| 2026-04-20 00:52 | -33.93027 | 151.17184 | 27 ft | 16 kts | 179° |
| 2026-04-20 00:52 | -33.93062 | 151.17192 | 26 ft | 0 kts | 168° |
| 2026-04-20 00:53 | -33.93067 | 151.17193 | 26 ft | 5 kts | 168° |
| 2026-04-20 00:53 | -33.93280 | 151.17248 | 27 ft | 69 kts | 167° |
| 2026-04-20 00:53 | -33.94000 | 151.17437 | 28 ft | 140 kts | 168° |
| 2026-04-20 00:54 | -33.95111 | 151.17743 | 369 ft | 170 kts | 170° |
| 2026-04-20 00:54 | -33.96216 | 151.17994 | 1251 ft | 167 kts | 176° |
| 2026-04-20 00:54 | -33.97463 | 151.17887 | 1450 ft | 192 kts | 185° |
| 2026-04-20 00:54 | -33.98850 | 151.17744 | 1836 ft | 202 kts | 184° |
| 2026-04-20 00:55 | -34.00323 | 151.17642 | 2371 ft | 226 kts | 182° |
| 2026-04-20 00:55 | -34.01962 | 151.17546 | 3166 ft | 238 kts | 182° |
| 2026-04-20 00:55 | -34.03601 | 151.17828 | 4209 ft | 242 kts | 160° |
| 2026-04-20 00:55 | -34.05218 | 151.18479 | 5097 ft | 251 kts | 167° |
| 2026-04-20 00:56 | -34.06970 | 151.18952 | 5314 ft | 262 kts | 168° |
| 2026-04-20 00:56 | -34.08706 | 151.19489 | 5795 ft | 254 kts | 166° |
| 2026-04-20 00:56 | -34.10395 | 151.20071 | 6954 ft | 254 kts | 166° |
| 2026-04-20 00:56 | -34.12113 | 151.20652 | 7909 ft | 258 kts | 166° |
| 2026-04-20 00:57 | -34.13864 | 151.21233 | 8867 ft | 263 kts | 166° |
| 2026-04-20 00:57 | -34.15641 | 151.21824 | 9833 ft | 268 kts | 166° |
| 2026-04-20 00:57 | -34.16842 | 151.22225 | 10448 ft | 270 kts | 166° |
| 2026-04-20 00:57 | -34.18761 | 151.22518 | 10832 ft | 291 kts | 188° |
| 2026-04-20 00:58 | -34.20720 | 151.21818 | 11624 ft | 296 kts | 208° |
| 2026-04-20 00:58 | -34.22322 | 151.20245 | 12510 ft | 303 kts | 227° |
| 2026-04-20 00:58 | -34.23712 | 151.18316 | 13322 ft | 308 kts | 227° |
| 2026-04-20 00:58 | -34.25118 | 151.16331 | 14204 ft | 313 kts | 227° |
| 2026-04-20 00:59 | -34.26540 | 151.14325 | 14985 ft | 316 kts | 227° |
| 2026-04-20 00:59 | -34.27985 | 151.12294 | 15757 ft | 321 kts | 227° |
| 2026-04-20 00:59 | -34.29447 | 151.10237 | 16531 ft | 324 kts | 227° |
| 2026-04-20 00:59 | -34.30922 | 151.08157 | 17296 ft | 328 kts | 227° |
| 2026-04-20 01:00 | -34.32420 | 151.06045 | 18063 ft | 332 kts | 227° |
| 2026-04-20 01:00 | -34.33930 | 151.03916 | 18772 ft | 336 kts | 227° |
| 2026-04-20 01:00 | -34.35460 | 151.01755 | 19443 ft | 339 kts | 227° |
| 2026-04-20 01:00 | -34.37000 | 150.99589 | 20106 ft | 341 kts | 225° |
| 2026-04-20 01:01 | -34.38757 | 150.97600 | 20333 ft | 355 kts | 219° |